Maldives Meteorological Service

SYNOP

Station Code SYNOP
43555
AAXX 29094 43555 42468 72710 10310 20260 30085 40087 82208 333 59006 82818 87277=
43533
AAXX 29094 43533 42470 42708 10311 20253 30086 40088 81242 333 59006 81818 83076=
43577
AAXX 29094 43577 42468 32705 10316 20260 30087 40089 81242 333 59006 81818=
43588
AAXX 29094 43588 42465 52704 10314 20239 30086 40087 82232 333 59006 82818 83078=
43599
AAXX 29094 43599 42462 32506 10310 20244 30086 40088 82201 333 59009 82818=
Last Updated : 2017-06-29 14:01:02